createdAt,value
2023-03-20T00:01:58.472Z,18.40
2023-03-20T00:04:45.992Z,17.87
2023-03-20T00:07:33.438Z,17.77
2023-03-20T00:10:21.221Z,17.67
2023-03-20T00:13:11.473Z,18.23
2023-03-20T00:15:58.888Z,17.97
2023-03-20T00:18:46.568Z,18.87
2023-03-20T00:21:34.236Z,17.63
2023-03-20T00:24:22.096Z,17.97
2023-03-20T00:27:16.730Z,17.63
2023-03-20T00:30:04.708Z,19.27
2023-03-20T00:32:52.629Z,18.67
2023-03-20T00:35:40.134Z,17.53
2023-03-20T00:38:27.490Z,19.07
2023-03-20T00:41:24.081Z,18.30
2023-03-20T00:44:17.462Z,19.23
2023-03-20T00:47:07.062Z,18.97
2023-03-20T00:49:56.047Z,18.33
2023-03-20T00:52:44.570Z,18.60
2023-03-20T00:55:31.947Z,19.00
2023-03-20T00:58:19.308Z,18.77
2023-03-20T01:01:06.852Z,17.97
2023-03-20T01:03:54.326Z,19.13
2023-03-20T01:06:41.717Z,18.57
2023-03-20T01:09:29.066Z,18.47
2023-03-20T01:12:17.479Z,19.03
2023-03-20T01:15:05.493Z,18.57
2023-03-20T01:17:53.045Z,18.30
2023-03-20T01:20:40.723Z,18.87
2023-03-20T01:23:28.120Z,18.10
2023-03-20T01:26:28.251Z,18.70
2023-03-20T01:29:19.971Z,19.03
2023-03-20T01:32:12.552Z,19.13
2023-03-20T01:34:59.949Z,17.63
2023-03-20T01:37:48.116Z,18.40
2023-03-20T01:40:43.518Z,20.23
2023-03-20T01:43:31.042Z,19.67
2023-03-20T01:46:25.263Z,18.77
2023-03-20T01:49:21.792Z,17.30
2023-03-20T01:52:09.173Z,17.30
2023-03-20T01:54:56.584Z,19.33
2023-03-20T01:57:44.140Z,17.90
2023-03-20T02:00:32.137Z,18.37
2023-03-20T02:03:19.971Z,17.67
2023-03-20T02:06:08.442Z,17.63
2023-03-20T02:08:55.884Z,18.53
2023-03-20T02:11:44.150Z,17.97
2023-03-20T02:14:33.226Z,17.20
2023-03-20T02:17:20.779Z,18.40
2023-03-20T02:20:14.739Z,18.07
2023-03-20T02:23:17.523Z,17.07
2023-03-20T02:26:23.192Z,18.50
2023-03-20T02:29:31.288Z,17.43
2023-03-20T02:32:37.610Z,18.60
2023-03-20T02:35:35.444Z,19.40
2023-03-20T02:38:28.992Z,19.60
2023-03-20T02:41:20.417Z,19.40
2023-03-20T02:44:19.513Z,19.87
2023-03-20T02:47:11.782Z,18.70
2023-03-20T02:50:18.150Z,18.97
2023-03-20T02:53:18.976Z,18.27
2023-03-20T02:56:09.226Z,17.63
2023-03-20T02:59:14.050Z,18.43
2023-03-20T03:02:09.698Z,17.37
2023-03-20T03:04:59.206Z,16.87
2023-03-20T03:07:49.843Z,17.93
2023-03-20T03:10:39.216Z,15.73
2023-03-20T03:13:29.112Z,16.20
2023-03-20T03:16:28.133Z,17.03
2023-03-20T03:19:24.722Z,16.67
2023-03-20T03:22:12.299Z,16.97
2023-03-20T03:24:59.672Z,14.13
2023-03-20T03:27:49.427Z,13.27
2023-03-20T03:30:39.229Z,13.17
2023-03-20T03:33:30.914Z,11.93
2023-03-20T03:36:36.676Z,11.73
2023-03-20T03:39:36.940Z,12.10
2023-03-20T03:42:30.786Z,11.00
2023-03-20T03:45:38.581Z,10.17
2023-03-20T03:48:28.941Z,9.90
2023-03-20T03:51:22.038Z,10.93
2023-03-20T03:54:15.377Z,9.80
2023-03-20T03:57:03.120Z,10.17
2023-03-20T03:59:51.521Z,10.27
2023-03-20T04:02:38.976Z,9.63
2023-03-20T04:05:31.367Z,9.27
2023-03-20T04:08:18.748Z,8.33
2023-03-20T04:11:06.456Z,8.43
2023-03-20T04:13:54.274Z,8.87
2023-03-20T04:16:42.249Z,8.27
2023-03-20T04:19:29.614Z,7.53
2023-03-20T04:22:16.995Z,7.27
2023-03-20T04:25:05.542Z,6.80
2023-03-20T04:27:52.988Z,6.33
2023-03-20T04:30:40.382Z,6.80
2023-03-20T04:33:28.122Z,6.07
2023-03-20T04:36:15.675Z,5.90
2023-03-20T04:39:03.102Z,6.10
2023-03-20T04:41:50.499Z,6.97
2023-03-20T04:44:37.870Z,6.93
2023-03-20T04:47:25.383Z,6.70
2023-03-20T04:50:14.098Z,6.37
2023-03-20T04:53:01.828Z,6.23
2023-03-20T04:55:50.978Z,5.57
2023-03-20T04:58:38.396Z,6.00
2023-03-20T05:01:25.922Z,5.87
2023-03-20T05:04:13.448Z,5.87
2023-03-20T05:07:00.848Z,5.03
2023-03-20T05:09:48.244Z,5.90
2023-03-20T05:12:35.789Z,6.77
2023-03-20T05:15:23.140Z,5.80
2023-03-20T05:18:10.611Z,5.70
2023-03-20T05:20:58.017Z,5.80
2023-03-20T05:23:45.412Z,5.20
2023-03-20T05:26:32.798Z,5.97
2023-03-20T05:29:20.475Z,5.90
2023-03-20T05:32:07.875Z,5.63
2023-03-20T05:34:55.339Z,5.87
2023-03-20T05:37:42.687Z,5.63
2023-03-20T05:40:30.076Z,5.77
2023-03-20T05:43:17.450Z,4.60
2023-03-20T05:46:04.918Z,4.90
2023-03-20T05:48:52.280Z,5.60
2023-03-20T05:51:39.878Z,5.03
2023-03-20T05:54:27.215Z,5.30
2023-03-20T05:57:15.303Z,4.87
2023-03-20T06:00:02.706Z,4.63
2023-03-20T06:02:50.267Z,4.30
2023-03-20T06:05:38.092Z,8.37
2023-03-20T06:08:25.733Z,7.23
2023-03-20T06:11:13.103Z,6.40
2023-03-20T06:14:00.734Z,5.47
2023-03-20T06:16:48.122Z,5.10
2023-03-20T06:19:35.590Z,5.37
2023-03-20T06:22:22.937Z,5.20
2023-03-20T06:25:10.817Z,5.67
2023-03-20T06:27:58.188Z,5.40
2023-03-20T06:30:45.641Z,5.17
2023-03-20T06:33:33.142Z,5.60
2023-03-20T06:36:20.767Z,5.73
2023-03-20T06:39:08.228Z,5.77
2023-03-20T06:41:55.927Z,5.87
2023-03-20T06:44:43.303Z,6.50
2023-03-20T06:47:33.689Z,6.13
2023-03-20T06:50:21.046Z,6.60
2023-03-20T06:53:08.479Z,6.37
2023-03-20T06:55:55.884Z,7.13
2023-03-20T06:58:43.208Z,7.30
2023-03-20T07:01:30.750Z,6.73
2023-03-20T07:04:18.183Z,7.30
2023-03-20T07:07:05.654Z,6.50
2023-03-20T07:09:53.020Z,6.27
2023-03-20T07:12:40.492Z,6.83
2023-03-20T07:15:29.669Z,6.00
2023-03-20T07:18:17.630Z,6.93
2023-03-20T07:21:06.331Z,6.33
2023-03-20T07:23:54.153Z,7.53
2023-03-20T07:26:41.879Z,6.40
2023-03-20T07:29:29.277Z,7.00
2023-03-20T07:32:17.010Z,7.13
2023-03-20T07:35:04.868Z,5.93
2023-03-20T07:37:52.243Z,7.60
2023-03-20T07:40:39.635Z,7.23
2023-03-20T07:43:26.981Z,6.67
2023-03-20T07:46:14.359Z,7.53
2023-03-20T07:49:01.777Z,6.93
2023-03-20T07:51:50.242Z,7.27
2023-03-20T07:54:37.626Z,7.87
2023-03-20T07:57:25.257Z,8.07
2023-03-20T08:00:12.982Z,7.60
2023-03-20T08:03:00.707Z,7.90
2023-03-20T08:05:48.238Z,8.47
2023-03-20T08:08:36.071Z,7.97
2023-03-20T08:11:23.797Z,8.23
2023-03-20T08:14:11.225Z,7.33
2023-03-20T08:17:12.869Z,8.27
2023-03-20T08:20:02.055Z,8.83
2023-03-20T08:22:50.325Z,8.37
2023-03-20T08:25:38.188Z,9.67
2023-03-20T08:28:40.387Z,8.90
2023-03-20T08:31:31.842Z,8.87
2023-03-20T08:34:19.238Z,9.23
2023-03-20T08:37:07.938Z,8.47
2023-03-20T08:39:55.386Z,8.93
2023-03-20T08:42:42.825Z,8.90
2023-03-20T08:45:30.245Z,8.87
2023-03-20T08:48:17.594Z,7.80
2023-03-20T08:51:05.240Z,8.53
2023-03-20T08:53:52.701Z,8.87
2023-03-20T08:56:40.375Z,8.70
2023-03-20T08:59:27.741Z,7.90
2023-03-20T09:02:15.365Z,7.90
2023-03-20T09:05:03.243Z,7.43
2023-03-20T09:07:51.347Z,7.53
2023-03-20T09:10:38.749Z,8.17
2023-03-20T09:13:27.931Z,7.30
2023-03-20T09:16:16.293Z,8.13
2023-03-20T09:19:04.178Z,7.37
2023-03-20T09:21:51.587Z,6.73
2023-03-20T09:24:38.924Z,7.03
2023-03-20T09:27:26.261Z,6.93
2023-03-20T09:30:13.941Z,8.23
2023-03-20T09:33:02.028Z,7.57
2023-03-20T09:35:49.479Z,7.23
2023-03-20T09:38:36.928Z,7.10
2023-03-20T09:41:28.261Z,6.23
2023-03-20T09:44:28.147Z,6.77
2023-03-20T09:47:20.966Z,6.90
2023-03-20T09:50:09.195Z,6.43
2023-03-20T09:53:10.004Z,6.53
2023-03-20T09:55:57.843Z,7.30
2023-03-20T09:58:49.005Z,6.83
2023-03-20T10:01:48.238Z,6.70
2023-03-20T10:04:36.824Z,6.90
2023-03-20T10:07:25.958Z,6.57
2023-03-20T10:10:14.798Z,6.43
2023-03-20T10:13:02.160Z,6.77
2023-03-20T10:15:52.334Z,6.60
2023-03-20T10:18:44.408Z,6.43
2023-03-20T10:21:37.788Z,5.63
2023-03-20T10:24:43.005Z,6.30
2023-03-20T10:27:34.061Z,5.60
2023-03-20T10:30:57.182Z,5.47
2023-03-20T10:33:44.524Z,5.67
2023-03-20T10:36:41.649Z,5.47
2023-03-20T10:39:46.270Z,5.50
2023-03-20T10:42:40.305Z,5.47
2023-03-20T10:45:33.463Z,5.20
2023-03-20T10:48:31.173Z,5.17
2023-03-20T10:51:20.650Z,6.03
2023-03-20T10:54:13.772Z,5.00
2023-03-20T10:57:03.636Z,5.30
2023-03-20T10:59:52.308Z,5.43
2023-03-20T11:02:39.869Z,4.63
2023-03-20T11:05:34.588Z,5.20
2023-03-20T11:08:23.774Z,4.43
2023-03-20T11:11:11.575Z,4.63
2023-03-20T11:14:10.312Z,5.37
2023-03-20T11:17:00.930Z,4.63
2023-03-20T11:19:48.399Z,4.23
2023-03-20T11:22:37.256Z,5.00
2023-03-20T11:25:29.304Z,4.40
2023-03-20T11:28:21.374Z,5.23
2023-03-20T11:31:11.801Z,5.27
2023-03-20T11:34:02.231Z,5.33
2023-03-20T11:37:09.603Z,5.30
2023-03-20T11:39:59.251Z,5.70
2023-03-20T11:42:54.528Z,5.70
2023-03-20T11:45:45.772Z,5.30
2023-03-20T11:48:40.879Z,5.43
2023-03-20T11:51:28.342Z,5.50
2023-03-20T11:54:17.553Z,5.50
2023-03-20T11:57:04.976Z,6.07
2023-03-20T11:59:52.570Z,6.20
2023-03-20T12:02:44.676Z,6.10
2023-03-20T12:05:32.290Z,6.50
2023-03-20T12:08:23.565Z,6.30
2023-03-20T12:11:40.395Z,7.37
2023-03-20T12:14:34.238Z,7.20
2023-03-20T12:17:33.690Z,6.70
2023-03-20T12:20:21.370Z,5.83
2023-03-20T12:23:12.028Z,6.93
2023-03-20T12:26:07.114Z,6.67
2023-03-20T12:29:04.184Z,6.77
2023-03-20T12:31:54.848Z,7.17
2023-03-20T12:34:44.060Z,6.60
2023-03-20T12:37:32.276Z,7.00
2023-03-20T12:40:23.013Z,6.23
2023-03-20T12:43:14.981Z,6.80
2023-03-20T12:46:21.153Z,7.57
2023-03-20T12:49:14.569Z,6.50
2023-03-20T12:52:19.583Z,7.15
2023-03-20T12:55:19.127Z,5.90
2023-03-20T12:58:12.750Z,6.00
2023-03-20T13:01:05.073Z,5.90
2023-03-20T13:03:52.488Z,4.87
2023-03-20T13:06:42.876Z,5.57
2023-03-20T13:09:44.694Z,5.73
2023-03-20T13:12:52.143Z,6.17
2023-03-20T13:15:59.112Z,5.80
2023-03-20T13:18:46.612Z,6.53
2023-03-20T13:22:03.371Z,5.90
2023-03-20T13:24:53.464Z,5.10
2023-03-20T13:27:50.386Z,6.47
2023-03-20T13:30:41.033Z,5.30
2023-03-20T13:33:38.560Z,5.10
2023-03-20T13:36:30.584Z,4.87
2023-03-20T13:39:38.935Z,5.70
2023-03-20T13:42:29.910Z,4.93
2023-03-20T13:45:36.914Z,5.40
2023-03-20T13:48:27.517Z,5.93
2023-03-20T13:51:17.815Z,5.13
2023-03-20T13:54:31.920Z,5.40
2023-03-20T13:57:38.400Z,5.27
2023-03-20T14:00:25.841Z,5.23
2023-03-20T14:03:23.760Z,6.50
2023-03-20T14:06:18.947Z,5.57
2023-03-20T14:09:24.716Z,5.40
2023-03-20T14:12:13.375Z,5.20
2023-03-20T14:15:02.201Z,6.10
2023-03-20T14:17:52.079Z,5.83
2023-03-20T14:20:40.985Z,5.30
2023-03-20T14:23:34.205Z,5.80
2023-03-20T14:26:26.683Z,5.50
2023-03-20T14:29:14.111Z,5.13
2023-03-20T14:32:10.420Z,5.60
2023-03-20T14:35:01.937Z,5.60
2023-03-20T14:37:52.306Z,5.50
2023-03-20T14:40:44.599Z,5.83
2023-03-20T14:43:31.964Z,5.97
2023-03-20T14:46:25.424Z,5.73
2023-03-20T14:49:23.621Z,5.37
2023-03-20T14:52:34.439Z,5.90
2023-03-20T14:55:24.778Z,5.10
2023-03-20T14:58:31.032Z,5.63
2023-03-20T15:01:24.635Z,5.27
2023-03-20T15:04:15.319Z,5.90
2023-03-20T15:07:05.235Z,6.20
2023-03-20T15:09:54.221Z,6.33
2023-03-20T15:12:41.802Z,7.00
2023-03-20T15:15:31.552Z,6.77
2023-03-20T15:18:21.370Z,6.50
2023-03-20T15:21:18.931Z,7.27
2023-03-20T15:24:06.300Z,6.07
2023-03-20T15:26:54.843Z,6.47
2023-03-20T15:29:51.847Z,6.00
2023-03-20T15:32:39.314Z,6.83
2023-03-20T15:35:27.594Z,6.17
2023-03-20T15:38:16.144Z,6.30
2023-03-20T15:41:07.747Z,7.17
2023-03-20T15:44:01.833Z,6.40
2023-03-20T15:46:54.329Z,6.20
2023-03-20T15:49:42.147Z,7.30
2023-03-20T15:52:29.587Z,5.73
2023-03-20T15:55:18.346Z,6.40
2023-03-20T15:58:06.012Z,5.87
2023-03-20T16:00:53.522Z,6.07
2023-03-20T16:03:41.761Z,6.00
2023-03-20T16:06:29.398Z,5.57
2023-03-20T16:09:17.560Z,5.43
2023-03-20T16:12:14.813Z,5.97
2023-03-20T16:15:04.829Z,6.67
2023-03-20T16:17:54.465Z,6.43
2023-03-20T16:20:45.942Z,5.60
2023-03-20T16:23:39.358Z,5.83
2023-03-20T16:26:27.520Z,6.20
2023-03-20T16:29:15.980Z,5.97
2023-03-20T16:32:07.784Z,5.90
2023-03-20T16:34:56.994Z,6.43
2023-03-20T16:37:48.826Z,6.60
2023-03-20T16:40:37.126Z,6.57
2023-03-20T16:43:31.139Z,7.87
2023-03-20T16:46:22.032Z,7.20
2023-03-20T16:49:35.376Z,6.93
2023-03-20T16:52:28.435Z,7.53
2023-03-20T16:55:17.722Z,7.57
2023-03-20T16:58:06.612Z,6.83
2023-03-20T17:01:07.085Z,7.60
2023-03-20T17:04:14.158Z,8.40
2023-03-20T17:07:06.220Z,7.67
2023-03-20T17:10:13.857Z,8.27
2023-03-20T17:13:01.215Z,8.13
2023-03-20T17:15:48.730Z,7.37
2023-03-20T17:18:36.742Z,7.70
2023-03-20T17:21:24.413Z,8.17
2023-03-20T17:24:11.801Z,8.50
2023-03-20T17:26:59.191Z,8.53
2023-03-20T17:29:49.267Z,8.10
2023-03-20T17:32:36.705Z,7.83
2023-03-20T17:35:24.114Z,7.73
2023-03-20T17:38:19.312Z,7.30
2023-03-20T17:41:07.105Z,8.30
2023-03-20T17:43:56.566Z,7.83
2023-03-20T17:46:57.370Z,8.37
2023-03-20T17:49:45.996Z,8.23
2023-03-20T17:52:33.557Z,8.00
2023-03-20T17:55:21.054Z,8.03
2023-03-20T17:58:12.497Z,9.13
2023-03-20T18:00:59.924Z,8.80
2023-03-20T18:03:47.358Z,8.53
2023-03-20T18:06:35.617Z,9.07
2023-03-20T18:09:24.031Z,8.50
2023-03-20T18:12:15.852Z,9.27
2023-03-20T18:15:03.779Z,8.63
2023-03-20T18:17:51.152Z,9.93
2023-03-20T18:20:40.924Z,8.77
2023-03-20T18:23:28.482Z,9.77
2023-03-20T18:26:18.944Z,9.53
2023-03-20T18:29:06.388Z,10.03
2023-03-20T18:31:53.968Z,9.93
2023-03-20T18:34:41.775Z,9.57
2023-03-20T18:37:29.275Z,10.27
2023-03-20T18:40:19.617Z,9.80
2023-03-20T18:43:06.990Z,11.40
2023-03-20T18:45:54.546Z,10.63
2023-03-20T18:48:42.037Z,11.73
2023-03-20T18:51:29.473Z,10.77
2023-03-20T18:54:16.822Z,11.07
2023-03-20T18:57:04.142Z,11.33
2023-03-20T18:59:51.497Z,11.73
2023-03-20T19:02:38.843Z,12.27
2023-03-20T19:05:27.517Z,12.67
2023-03-20T19:08:16.140Z,13.50
2023-03-20T19:11:03.944Z,13.40
2023-03-20T19:13:52.591Z,13.83
2023-03-20T19:16:41.185Z,14.93
2023-03-20T19:19:29.539Z,14.73
2023-03-20T19:22:28.920Z,14.73
2023-03-20T19:25:16.800Z,13.43
2023-03-20T19:28:04.916Z,15.80
2023-03-20T19:30:53.707Z,15.47
2023-03-20T19:33:41.247Z,15.43
2023-03-20T19:36:30.321Z,16.47
2023-03-20T19:39:17.836Z,15.93
2023-03-20T19:42:30.386Z,16.10
2023-03-20T19:45:13.639Z,16.53
2023-03-20T19:48:03.092Z,16.70
2023-03-20T19:50:51.330Z,18.07
2023-03-20T19:53:38.901Z,16.80
2023-03-20T19:56:27.027Z,18.17
2023-03-20T19:59:16.712Z,19.10
2023-03-20T20:02:04.536Z,19.90
2023-03-20T20:04:52.246Z,18.40
2023-03-20T20:08:12.777Z,19.93
2023-03-20T20:10:48.586Z,19.73
2023-03-20T20:13:47.155Z,19.50
2023-03-20T20:16:43.877Z,18.77
2023-03-20T20:19:31.477Z,20.00
2023-03-20T20:22:25.605Z,19.00
2023-03-20T20:25:14.556Z,19.10
2023-03-20T20:28:01.998Z,20.23
2023-03-20T20:30:50.843Z,19.53
2023-03-20T20:33:39.532Z,19.27
2023-03-20T20:37:18.354Z,19.53
2023-03-20T20:39:34.482Z,19.23
2023-03-20T20:42:22.713Z,18.67
2023-03-20T20:45:11.963Z,18.90
2023-03-20T20:47:59.868Z,18.97
2023-03-20T20:50:48.614Z,18.47
2023-03-20T20:53:36.034Z,18.70
2023-03-20T20:56:25.571Z,19.30
2023-03-20T20:59:15.507Z,19.73
2023-03-20T21:02:02.910Z,19.53
2023-03-20T21:04:50.480Z,18.63
2023-03-20T21:07:38.009Z,19.40
2023-03-20T21:10:25.612Z,20.63
2023-03-20T21:13:13.279Z,20.43
2023-03-20T21:16:00.914Z,20.73
2023-03-20T21:18:48.554Z,21.03
2023-03-20T21:21:36.048Z,22.57
2023-03-20T21:24:32.322Z,22.57
2023-03-20T21:27:21.551Z,22.90
2023-03-20T21:30:09.267Z,20.63
2023-03-20T21:32:57.779Z,20.80
2023-03-20T21:35:46.116Z,21.07
2023-03-20T21:41:42.022Z,20.70
2023-03-20T21:58:03.535Z,22.47
2023-03-20T22:03:33.714Z,21.67
2023-03-20T22:07:23.909Z,22.77
2023-03-20T22:13:20.787Z,23.60
2023-03-20T22:16:31.877Z,22.87
2023-03-20T22:35:04.886Z,23.23
2023-03-20T22:42:13.708Z,22.87
2023-03-20T22:44:43.536Z,24.13
2023-03-20T22:46:59.692Z,25.20
2023-03-20T22:49:47.034Z,25.43
2023-03-20T22:52:48.138Z,27.00
2023-03-20T22:55:36.319Z,26.43
2023-03-20T22:58:23.709Z,25.20
2023-03-20T23:01:11.683Z,24.53
2023-03-20T23:03:59.217Z,24.43
2023-03-20T23:06:46.669Z,23.27
2023-03-20T23:09:34.030Z,23.50
2023-03-20T23:12:21.616Z,23.50
2023-03-20T23:15:09.369Z,24.50
2023-03-20T23:17:56.777Z,24.73
2023-03-20T23:20:44.246Z,25.13
2023-03-20T23:23:32.088Z,25.37
2023-03-20T23:26:23.106Z,25.30
2023-03-20T23:29:10.465Z,23.67
2023-03-20T23:31:57.876Z,24.93
2023-03-20T23:34:45.525Z,22.07
2023-03-20T23:37:33.066Z,23.17
2023-03-20T23:40:20.562Z,22.13
2023-03-20T23:43:07.909Z,22.77
2023-03-20T23:45:55.281Z,22.20
2023-03-20T23:48:42.678Z,22.33
2023-03-20T23:51:30.217Z,20.60
2023-03-20T23:54:17.680Z,21.17
2023-03-20T23:57:05.322Z,20.30
2023-03-20T23:59:52.844Z,20.33
